Huvudsida
METAR-TAF:

METAR-TAF

Flygplatser :

Seinäjoki flygplats

Seinäjoki-Ilmola, Finland

latitud: 62-41-37N, longitud: 022-49-55E, höjd: 91 m

Aktuellt väderrapport

Denna rapport gjordes för 13 minuter sedan, klockan 05:50 UTC
Vind 6 kt från väst, varierande mellan väst/sydväst och nordväst
Temperatur -3°C
Fuktighet 68%
Tryck 1024 hPa
Sikt 10 km eller mer
Inga moln under 1 500 m eller inga cumulonimbus

METAR: EFSI 050550Z AUTO 27006KT 240V310 CAVOK M03/M08 Q1024

Tid: 09:03 (06:03 UTC)


TAF: saknas

Aktuella väderrapporter och prognoser från 4000 flygplatser (METAR- och TAF-rapporter).

De tillgängliga stationerna syns som gula och röda prickar på kartan.

För musen över prickarna för att se namnen på stationerna.

Klicka sedan för att få väderrapporter och prognoser.

För att ändra kartan: Klicka på de gröna knapparna med ett svart kors på för att zooma in; den gröna knappen med ett streck på för att zooma ut; eller på de gröna pilarna för angränsande kartor.


METAR-TAF: